sensor_id;sensor_type;location;lat;lon;timestamp;pressure;altitude;pressure_sealevel;temperature;humidity
73981;BME280;62348;51.412;5.436;2022-12-13T00:01:31;101093.00;;;-4.51;82.26
73981;BME280;62348;51.412;5.436;2022-12-13T00:03:59;101090.38;;;-4.51;81.77
73981;BME280;62348;51.412;5.436;2022-12-13T00:06:25;101088.69;;;-4.52;81.79
73981;BME280;62348;51.412;5.436;2022-12-13T00:08:51;101093.00;;;-4.51;82.12
73981;BME280;62348;51.412;5.436;2022-12-13T00:11:16;101086.25;;;-4.53;81.33
73981;BME280;62348;51.412;5.436;2022-12-13T00:13:42;101090.84;;;-4.55;81.94
73981;BME280;62348;51.412;5.436;2022-12-13T00:16:12;101085.56;;;-4.55;81.76
73981;BME280;62348;51.412;5.436;2022-12-13T00:18:39;101076.28;;;-4.59;81.96
73981;BME280;62348;51.412;5.436;2022-12-13T00:21:06;101078.25;;;-4.61;81.95
73981;BME280;62348;51.412;5.436;2022-12-13T00:23:32;101076.75;;;-4.64;82.14
73981;BME280;62348;51.412;5.436;2022-12-13T00:26:21;101071.34;;;-4.62;81.78
73981;BME280;62348;51.412;5.436;2022-12-13T00:28:48;101075.28;;;-4.66;82.59
73981;BME280;62348;51.412;5.436;2022-12-13T00:31:16;101076.41;;;-4.69;82.17
73981;BME280;62348;51.412;5.436;2022-12-13T00:33:42;101073.91;;;-4.71;81.99
73981;BME280;62348;51.412;5.436;2022-12-13T00:36:08;101078.50;;;-4.73;81.93
73981;BME280;62348;51.412;5.436;2022-12-13T00:38:34;101076.06;;;-4.74;82.23
73981;BME280;62348;51.412;5.436;2022-12-13T00:41:17;101085.59;;;-4.73;82.45
73981;BME280;62348;51.412;5.436;2022-12-13T00:43:43;101081.47;;;-4.76;82.01
73981;BME280;62348;51.412;5.436;2022-12-13T00:46:17;101072.72;;;-4.76;81.83
73981;BME280;62348;51.412;5.436;2022-12-13T00:48:46;101068.59;;;-4.79;82.66
73981;BME280;62348;51.412;5.436;2022-12-13T00:51:12;101078.31;;;-4.79;81.95
73981;BME280;62348;51.412;5.436;2022-12-13T00:53:37;101068.72;;;-4.80;81.32
73981;BME280;62348;51.412;5.436;2022-12-13T00:56:03;101067.09;;;-4.81;81.27
73981;BME280;62348;51.412;5.436;2022-12-13T00:58:34;101070.69;;;-4.82;81.57
73981;BME280;62348;51.412;5.436;2022-12-13T01:01:11;101067.25;;;-4.83;81.60
73981;BME280;62348;51.412;5.436;2022-12-13T01:03:37;101061.59;;;-4.88;81.34
73981;BME280;62348;51.412;5.436;2022-12-13T01:08:34;101059.94;;;-4.89;81.67
73981;BME280;62348;51.412;5.436;2022-12-13T01:11:00;101060.09;;;-4.91;81.62
73981;BME280;62348;51.412;5.436;2022-12-13T01:13:25;101063.03;;;-4.94;81.89
73981;BME280;62348;51.412;5.436;2022-12-13T01:15:51;101057.09;;;-4.96;82.01
73981;BME280;62348;51.412;5.436;2022-12-13T01:18:16;101061.69;;;-4.98;81.95
73981;BME280;62348;51.412;5.436;2022-12-13T01:20:55;101056.72;;;-5.01;82.35
73981;BME280;62348;51.412;5.436;2022-12-13T01:23:21;101058.53;;;-5.01;82.10
73981;BME280;62348;51.412;5.436;2022-12-13T01:25:47;101058.69;;;-5.03;82.03
73981;BME280;62348;51.412;5.436;2022-12-13T01:28:12;101053.59;;;-5.04;82.32
73981;BME280;62348;51.412;5.436;2022-12-13T01:30:37;101058.00;;;-5.05;82.11
73981;BME280;62348;51.412;5.436;2022-12-13T01:33:03;101059.97;;;-5.07;82.30
73981;BME280;62348;51.412;5.436;2022-12-13T01:35:28;101061.78;;;-5.07;81.96
73981;BME280;62348;51.412;5.436;2022-12-13T01:37:53;101064.56;;;-5.09;82.94
73981;BME280;62348;51.412;5.436;2022-12-13T01:40:19;101060.44;;;-5.12;82.07
73981;BME280;62348;51.412;5.436;2022-12-13T01:42:45;101063.06;;;-5.12;82.08
73981;BME280;62348;51.412;5.436;2022-12-13T01:45:21;101066.69;;;-5.13;82.65
73981;BME280;62348;51.412;5.436;2022-12-13T01:48:12;101070.00;;;-5.11;82.57
73981;BME280;62348;51.412;5.436;2022-12-13T01:50:43;101065.03;;;-5.14;81.86
73981;BME280;62348;51.412;5.436;2022-12-13T01:53:15;101060.59;;;-5.13;82.19
73981;BME280;62348;51.412;5.436;2022-12-13T01:55:42;101061.88;;;-5.17;81.88
73981;BME280;62348;51.412;5.436;2022-12-13T01:58:10;101063.84;;;-5.19;81.67
73981;BME280;62348;51.412;5.436;2022-12-13T02:00:36;101070.22;;;-5.22;81.41
73981;BME280;62348;51.412;5.436;2022-12-13T02:03:02;101054.59;;;-5.23;81.70
73981;BME280;62348;51.412;5.436;2022-12-13T02:05:52;101060.53;;;-5.21;82.17
73981;BME280;62348;51.412;5.436;2022-12-13T02:08:19;101062.78;;;-5.26;81.70
73981;BME280;62348;51.412;5.436;2022-12-13T02:10:44;101061.28;;;-5.29;82.17
73981;BME280;62348;51.412;5.436;2022-12-13T02:13:11;101061.44;;;-5.31;82.26
73981;BME280;62348;51.412;5.436;2022-12-13T02:15:45;101056.97;;;-5.30;82.50
73981;BME280;62348;51.412;5.436;2022-12-13T02:18:21;101068.53;;;-5.31;82.05
73981;BME280;62348;51.412;5.436;2022-12-13T02:31:56;101059.56;;;-5.38;82.28
73981;BME280;62348;51.412;5.436;2022-12-13T02:34:31;101058.03;;;-5.41;82.19
73981;BME280;62348;51.412;5.436;2022-12-13T02:37:17;101060.53;;;-5.39;82.30
73981;BME280;62348;51.412;5.436;2022-12-13T02:39:56;101049.16;;;-5.40;82.35
73981;BME280;62348;51.412;5.436;2022-12-13T02:42:28;101050.97;;;-5.40;82.49
73981;BME280;62348;51.412;5.436;2022-12-13T02:45:09;101047.34;;;-5.39;82.12
73981;BME280;62348;51.412;5.436;2022-12-13T02:47:37;101046.00;;;-5.43;82.32
73981;BME280;62348;51.412;5.436;2022-12-13T02:50:05;101049.59;;;-5.44;82.54
73981;BME280;62348;51.412;5.436;2022-12-13T02:52:32;101045.31;;;-5.45;82.51
73981;BME280;62348;51.412;5.436;2022-12-13T02:54:58;101036.59;;;-5.46;82.14
73981;BME280;62348;51.412;5.436;2022-12-13T02:57:35;101034.09;;;-5.47;82.04
73981;BME280;62348;51.412;5.436;2022-12-13T03:02:48;101028.31;;;-5.51;82.55
73981;BME280;62348;51.412;5.436;2022-12-13T03:06:27;101030.94;;;-5.51;82.00
73981;BME280;62348;51.412;5.436;2022-12-13T03:14:32;101034.53;;;-5.52;82.43
73981;BME280;62348;51.412;5.436;2022-12-13T03:17:01;101034.72;;;-5.54;81.93
73981;BME280;62348;51.412;5.436;2022-12-13T03:19:29;101032.09;;;-5.54;82.25
73981;BME280;62348;51.412;5.436;2022-12-13T03:21:54;101037.34;;;-5.54;82.53
73981;BME280;62348;51.412;5.436;2022-12-13T03:24:20;101032.22;;;-5.55;82.11
73981;BME280;62348;51.412;5.436;2022-12-13T03:26:47;101036.69;;;-5.56;82.10
73981;BME280;62348;51.412;5.436;2022-12-13T03:29:13;101026.13;;;-5.56;82.72
73981;BME280;62348;51.412;5.436;2022-12-13T03:31:39;101023.50;;;-5.56;82.94
73981;BME280;62348;51.412;5.436;2022-12-13T03:34:04;101030.56;;;-5.56;82.82
73981;BME280;62348;51.412;5.436;2022-12-13T03:36:30;101022.66;;;-5.56;83.02
73981;BME280;62348;51.412;5.436;2022-12-13T03:38:56;101029.72;;;-5.57;82.31
73981;BME280;62348;51.412;5.436;2022-12-13T03:41:23;101028.78;;;-5.56;82.91
73981;BME280;62348;51.412;5.436;2022-12-13T03:43:58;101026.44;;;-5.59;82.51
73981;BME280;62348;51.412;5.436;2022-12-13T03:46:24;101029.88;;;-5.58;82.42
73981;BME280;62348;51.412;5.436;2022-12-13T03:48:49;101022.13;;;-5.60;82.58
73981;BME280;62348;51.412;5.436;2022-12-13T03:51:14;101022.28;;;-5.61;82.50
73981;BME280;62348;51.412;5.436;2022-12-13T03:53:40;101021.31;;;-5.60;82.61
73981;BME280;62348;51.412;5.436;2022-12-13T03:56:05;101019.66;;;-5.61;82.84
73981;BME280;62348;51.412;5.436;2022-12-13T03:58:32;101015.22;;;-5.61;82.88
73981;BME280;62348;51.412;5.436;2022-12-13T04:00:58;101018.81;;;-5.62;82.44
73981;BME280;62348;51.412;5.436;2022-12-13T04:03:23;101021.44;;;-5.62;82.53
73981;BME280;62348;51.412;5.436;2022-12-13T04:05:49;101014.53;;;-5.63;82.63
73981;BME280;62348;51.412;5.436;2022-12-13T04:08:14;101015.50;;;-5.64;82.26
73981;BME280;62348;51.412;5.436;2022-12-13T04:10:39;101020.78;;;-5.64;82.42
73981;BME280;62348;51.412;5.436;2022-12-13T04:13:05;101012.72;;;-5.62;82.64
73981;BME280;62348;51.412;5.436;2022-12-13T04:15:49;101011.91;;;-5.63;83.30
73981;BME280;62348;51.412;5.436;2022-12-13T04:18:18;101009.41;;;-5.64;83.58
73981;BME280;62348;51.412;5.436;2022-12-13T04:20:44;101007.44;;;-5.62;83.80
73981;BME280;62348;51.412;5.436;2022-12-13T04:23:09;101003.00;;;-5.62;84.22
73981;BME280;62348;51.412;5.436;2022-12-13T04:25:35;101002.03;;;-5.61;84.55
73981;BME280;62348;51.412;5.436;2022-12-13T04:28:01;101010.47;;;-5.57;84.79
73981;BME280;62348;51.412;5.436;2022-12-13T04:30:26;101004.34;;;-5.58;84.41
73981;BME280;62348;51.412;5.436;2022-12-13T04:32:52;100997.97;;;-5.55;83.45
73981;BME280;62348;51.412;5.436;2022-12-13T04:35:17;101001.56;;;-5.56;84.69
73981;BME280;62348;51.412;5.436;2022-12-13T04:37:42;101000.75;;;-5.57;83.95
73981;BME280;62348;51.412;5.436;2022-12-13T04:40:08;100999.09;;;-5.58;84.00
73981;BME280;62348;51.412;5.436;2022-12-13T04:42:34;101005.06;;;-5.56;83.48
73981;BME280;62348;51.412;5.436;2022-12-13T04:44:59;100994.66;;;-5.57;83.71
73981;BME280;62348;51.412;5.436;2022-12-13T04:47:25;100994.34;;;-5.54;84.03
73981;BME280;62348;51.412;5.436;2022-12-13T04:49:50;100988.25;;;-5.55;84.41
73981;BME280;62348;51.412;5.436;2022-12-13T04:52:15;100988.09;;;-5.53;84.01
73981;BME280;62348;51.412;5.436;2022-12-13T04:54:41;100974.13;;;-5.54;83.86
73981;BME280;62348;51.412;5.436;2022-12-13T04:57:09;100983.13;;;-5.56;84.60
73981;BME280;62348;51.412;5.436;2022-12-13T04:59:35;100980.34;;;-5.55;84.49
73981;BME280;62348;51.412;5.436;2022-12-13T05:02:02;100973.44;;;-5.56;84.44
73981;BME280;62348;51.412;5.436;2022-12-13T05:04:27;100983.81;;;-5.54;84.09
73981;BME280;62348;51.412;5.436;2022-12-13T05:06:53;100974.94;;;-5.53;84.32
73981;BME280;62348;51.412;5.436;2022-12-13T05:09:18;100984.31;;;-5.51;83.97
73981;BME280;62348;51.412;5.436;2022-12-13T05:11:43;100978.91;;;-5.49;84.13
73981;BME280;62348;51.412;5.436;2022-12-13T05:14:09;100984.19;;;-5.49;84.00
73981;BME280;62348;51.412;5.436;2022-12-13T05:16:34;100986.00;;;-5.50;83.64
73981;BME280;62348;51.412;5.436;2022-12-13T05:18:59;100989.44;;;-5.49;84.39
73981;BME280;62348;51.412;5.436;2022-12-13T05:21:25;100988.63;;;-5.50;84.02
73981;BME280;62348;51.412;5.436;2022-12-13T05:23:50;100977.28;;;-5.50;83.71
73981;BME280;62348;51.412;5.436;2022-12-13T05:26:15;100977.94;;;-5.48;84.16
73981;BME280;62348;51.412;5.436;2022-12-13T05:28:41;100978.09;;;-5.50;84.23
73981;BME280;62348;51.412;5.436;2022-12-13T05:31:09;100977.28;;;-5.50;84.29
73981;BME280;62348;51.412;5.436;2022-12-13T05:33:35;100985.00;;;-5.49;84.05
73981;BME280;62348;51.412;5.436;2022-12-13T05:36:00;100972.97;;;-5.51;83.94
73981;BME280;62348;51.412;5.436;2022-12-13T05:38:26;100979.19;;;-5.52;83.79
73981;BME280;62348;51.412;5.436;2022-12-13T05:40:51;100983.50;;;-5.51;84.27
73981;BME280;62348;51.412;5.436;2022-12-13T05:43:17;100975.59;;;-5.51;84.05
73981;BME280;62348;51.412;5.436;2022-12-13T05:45:42;100974.78;;;-5.52;84.29
73981;BME280;62348;51.412;5.436;2022-12-13T05:48:07;100975.75;;;-5.53;83.53
73981;BME280;62348;51.412;5.436;2022-12-13T05:50:34;100971.63;;;-5.55;83.99
73981;BME280;62348;51.412;5.436;2022-12-13T05:52:59;100971.78;;;-5.57;84.06
73981;BME280;62348;51.412;5.436;2022-12-13T05:55:25;100970.94;;;-5.57;83.88
73981;BME280;62348;51.412;5.436;2022-12-13T05:57:50;100970.28;;;-5.59;83.55
73981;BME280;62348;51.412;5.436;2022-12-13T06:00:16;100967.63;;;-5.59;83.79
73981;BME280;62348;51.412;5.436;2022-12-13T06:02:43;100971.38;;;-5.62;83.39
73981;BME280;62348;51.412;5.436;2022-12-13T06:05:09;100971.53;;;-5.63;83.49
73981;BME280;62348;51.412;5.436;2022-12-13T06:07:35;100975.16;;;-5.64;83.24
73981;BME280;62348;51.412;5.436;2022-12-13T06:10:03;100978.94;;;-5.67;83.43
73981;BME280;62348;51.412;5.436;2022-12-13T06:12:28;100983.34;;;-5.68;83.30
73981;BME280;62348;51.412;5.436;2022-12-13T06:14:54;100978.25;;;-5.69;83.02
73981;BME280;62348;51.412;5.436;2022-12-13T06:17:19;100978.25;;;-5.69;83.08
73981;BME280;62348;51.412;5.436;2022-12-13T06:19:49;100981.19;;;-5.72;83.67
73981;BME280;62348;51.412;5.436;2022-12-13T06:22:14;100982.69;;;-5.70;83.42
73981;BME280;62348;51.412;5.436;2022-12-13T06:24:40;100982.69;;;-5.70;83.71
73981;BME280;62348;51.412;5.436;2022-12-13T06:27:05;100973.13;;;-5.71;83.68
73981;BME280;62348;51.412;5.436;2022-12-13T06:29:31;100971.63;;;-5.73;82.71
73981;BME280;62348;51.412;5.436;2022-12-13T06:31:58;100975.41;;;-5.76;83.73
73981;BME280;62348;51.412;5.436;2022-12-13T06:34:24;100981.63;;;-5.77;83.59
73981;BME280;62348;51.412;5.436;2022-12-13T06:36:49;100979.97;;;-5.78;83.37
73981;BME280;62348;51.412;5.436;2022-12-13T06:39:15;100982.63;;;-5.78;83.89
73981;BME280;62348;51.412;5.436;2022-12-13T06:41:41;100978.16;;;-5.77;83.96
73981;BME280;62348;51.412;5.436;2022-12-13T06:44:07;100977.22;;;-5.76;83.77
73981;BME280;62348;51.412;5.436;2022-12-13T06:46:32;100985.94;;;-5.76;83.61
73981;BME280;62348;51.412;5.436;2022-12-13T06:48:58;100978.03;;;-5.76;83.88
73981;BME280;62348;51.412;5.436;2022-12-13T06:51:23;100981.47;;;-5.75;84.67
73981;BME280;62348;51.412;5.436;2022-12-13T06:53:48;100968.31;;;-5.75;84.48
73981;BME280;62348;51.412;5.436;2022-12-13T06:56:14;100963.72;;;-5.73;84.30
73981;BME280;62348;51.412;5.436;2022-12-13T06:58:40;100960.25;;;-5.74;83.40
73981;BME280;62348;51.412;5.436;2022-12-13T07:01:16;100969.16;;;-5.75;84.03
73981;BME280;62348;51.412;5.436;2022-12-13T07:03:43;100968.47;;;-5.77;83.49
73981;BME280;62348;51.412;5.436;2022-12-13T07:06:12;100969.16;;;-5.75;85.00
73981;BME280;62348;51.412;5.436;2022-12-13T07:08:42;100970.28;;;-5.77;84.25
73981;BME280;62348;51.412;5.436;2022-12-13T07:11:16;100971.09;;;-5.77;84.18
73981;BME280;62348;51.412;5.436;2022-12-13T07:13:41;100971.94;;;-5.76;84.20
73981;BME280;62348;51.412;5.436;2022-12-13T07:16:07;100968.47;;;-5.77;83.86
73981;BME280;62348;51.412;5.436;2022-12-13T07:18:33;100960.56;;;-5.77;84.51
73981;BME280;62348;51.412;5.436;2022-12-13T07:20:58;100957.91;;;-5.77;83.91
73981;BME280;62348;51.412;5.436;2022-12-13T07:23:23;100957.09;;;-5.77;84.83
73981;BME280;62348;51.412;5.436;2022-12-13T07:25:53;100957.91;;;-5.77;84.71
73981;BME280;62348;51.412;5.436;2022-12-13T07:28:19;100956.13;;;-5.76;84.82
73981;BME280;62348;51.412;5.436;2022-12-13T07:30:45;100962.06;;;-5.74;86.36
73981;BME280;62348;51.412;5.436;2022-12-13T07:33:12;100969.84;;;-5.73;85.36
73981;BME280;62348;51.412;5.436;2022-12-13T07:35:38;100963.56;;;-5.72;85.56
73981;BME280;62348;51.412;5.436;2022-12-13T07:38:05;100956.34;;;-5.70;86.13
73981;BME280;62348;51.412;5.436;2022-12-13T07:40:38;100976.44;;;-5.69;85.11
73981;BME280;62348;51.412;5.436;2022-12-13T07:43:05;100976.31;;;-5.67;86.52
73981;BME280;62348;51.412;5.436;2022-12-13T07:45:30;100969.91;;;-5.64;87.35
73981;BME280;62348;51.412;5.436;2022-12-13T07:47:56;100963.47;;;-5.62;86.49
73981;BME280;62348;51.412;5.436;2022-12-13T07:50:21;100983.44;;;-5.59;86.63
73981;BME280;62348;51.412;5.436;2022-12-13T07:52:47;100977.03;;;-5.57;87.27
73981;BME280;62348;51.412;5.436;2022-12-13T07:55:13;100982.97;;;-5.55;86.50
73981;BME280;62348;51.412;5.436;2022-12-13T07:57:39;100991.41;;;-5.51;87.36
73981;BME280;62348;51.412;5.436;2022-12-13T08:00:05;100988.63;;;-5.50;87.11
73981;BME280;62348;51.412;5.436;2022-12-13T08:02:30;100989.97;;;-5.45;87.77
73981;BME280;62348;51.412;5.436;2022-12-13T08:04:56;100989.84;;;-5.44;87.98
73981;BME280;62348;51.412;5.436;2022-12-13T08:07:21;100982.44;;;-5.40;87.44
73981;BME280;62348;51.412;5.436;2022-12-13T08:09:47;100978.66;;;-5.38;88.03
73981;BME280;62348;51.412;5.436;2022-12-13T08:12:12;100978.38;;;-5.35;88.31
73981;BME280;62348;51.412;5.436;2022-12-13T08:14:37;100985.00;;;-5.31;87.90
73981;BME280;62348;51.412;5.436;2022-12-13T08:17:03;100975.94;;;-5.28;87.94
73981;BME280;62348;51.412;5.436;2022-12-13T08:19:28;100982.72;;;-5.25;87.81
73981;BME280;62348;51.412;5.436;2022-12-13T08:21:53;100988.69;;;-5.23;87.92
73981;BME280;62348;51.412;5.436;2022-12-13T08:24:21;100986.72;;;-5.21;88.50
73981;BME280;62348;51.412;5.436;2022-12-13T08:26:47;100986.38;;;-5.18;88.28
73981;BME280;62348;51.412;5.436;2022-12-13T08:29:12;100996.50;;;-5.14;87.76
73981;BME280;62348;51.412;5.436;2022-12-13T08:31:38;100999.78;;;-5.12;88.28
73981;BME280;62348;51.412;5.436;2022-12-13T08:34:03;100999.47;;;-5.08;88.22
73981;BME280;62348;51.412;5.436;2022-12-13T08:36:29;101000.00;;;-5.05;87.85
73981;BME280;62348;51.412;5.436;2022-12-13T08:38:55;100999.84;;;-5.03;87.94
73981;BME280;62348;51.412;5.436;2022-12-13T08:41:21;101004.81;;;-5.00;88.29
73981;BME280;62348;51.412;5.436;2022-12-13T08:43:47;100998.41;;;-4.98;88.12
73981;BME280;62348;51.412;5.436;2022-12-13T08:46:12;100989.50;;;-4.97;88.24
73981;BME280;62348;51.412;5.436;2022-12-13T08:48:38;100997.09;;;-4.94;88.00
73981;BME280;62348;51.412;5.436;2022-12-13T08:51:06;101004.03;;;-4.93;87.97
73981;BME280;62348;51.412;5.436;2022-12-13T08:53:32;100998.44;;;-4.90;88.19
73981;BME280;62348;51.412;5.436;2022-12-13T08:56:02;100999.94;;;-4.87;87.71
73981;BME280;62348;51.412;5.436;2022-12-13T08:58:28;101011.03;;;-4.83;88.05
73981;BME280;62348;51.412;5.436;2022-12-13T09:00:54;101015.16;;;-4.81;88.54
73981;BME280;62348;51.412;5.436;2022-12-13T09:03:20;101019.28;;;-4.78;88.09
73981;BME280;62348;51.412;5.436;2022-12-13T09:05:45;101016.34;;;-4.75;87.76
73981;BME280;62348;51.412;5.436;2022-12-13T09:08:10;101015.03;;;-4.71;87.95
73981;BME280;62348;51.412;5.436;2022-12-13T09:10:36;101015.69;;;-4.69;87.88
73981;BME280;62348;51.412;5.436;2022-12-13T09:13:01;101012.63;;;-4.64;87.94
73981;BME280;62348;51.412;5.436;2022-12-13T09:15:28;101022.84;;;-4.61;88.15
73981;BME280;62348;51.412;5.436;2022-12-13T09:17:54;101020.03;;;-4.60;88.37
73981;BME280;62348;51.412;5.436;2022-12-13T09:20:20;101017.25;;;-4.58;88.16
73981;BME280;62348;51.412;5.436;2022-12-13T09:22:45;101020.56;;;-4.56;88.26
73981;BME280;62348;51.412;5.436;2022-12-13T09:25:11;101014.13;;;-4.54;88.26
73981;BME280;62348;51.412;5.436;2022-12-13T09:27:36;101019.09;;;-4.51;87.92
73981;BME280;62348;51.412;5.436;2022-12-13T09:30:02;101011.84;;;-4.48;88.34
73981;BME280;62348;51.412;5.436;2022-12-13T09:32:29;101013.34;;;-4.46;88.18
73981;BME280;62348;51.412;5.436;2022-12-13T09:34:55;101017.50;;;-4.43;87.89
73981;BME280;62348;51.412;5.436;2022-12-13T09:37:20;101018.31;;;-4.43;87.66
73981;BME280;62348;51.412;5.436;2022-12-13T09:39:46;101020.97;;;-4.43;87.73
73981;BME280;62348;51.412;5.436;2022-12-13T09:42:26;101011.88;;;-4.40;87.60
73981;BME280;62348;51.412;5.436;2022-12-13T09:44:58;101010.75;;;-4.38;87.99
73981;BME280;62348;51.412;5.436;2022-12-13T09:47:29;101015.53;;;-4.33;88.39
73981;BME280;62348;51.412;5.436;2022-12-13T09:49:57;101019.69;;;-4.30;88.00
73981;BME280;62348;51.412;5.436;2022-12-13T09:52:24;101014.91;;;-4.27;88.06
73981;BME280;62348;51.412;5.436;2022-12-13T09:54:54;101012.78;;;-4.23;88.39
73981;BME280;62348;51.412;5.436;2022-12-13T09:57:25;101005.53;;;-4.21;87.95
73981;BME280;62348;51.412;5.436;2022-12-13T09:59:51;101001.09;;;-4.21;87.58
73981;BME280;62348;51.412;5.436;2022-12-13T10:02:22;101000.25;;;-4.21;87.76
73981;BME280;62348;51.412;5.436;2022-12-13T10:04:48;100999.25;;;-4.20;87.89
73981;BME280;62348;51.412;5.436;2022-12-13T10:07:19;100992.97;;;-4.19;88.06
73981;BME280;62348;51.412;5.436;2022-12-13T10:09:45;100990.03;;;-4.16;88.24
73981;BME280;62348;51.412;5.436;2022-12-13T10:12:13;100994.00;;;-4.12;88.23
73981;BME280;62348;51.412;5.436;2022-12-13T10:14:43;100985.91;;;-4.10;88.08
73981;BME280;62348;51.412;5.436;2022-12-13T10:17:14;100983.47;;;-4.04;88.07
73981;BME280;62348;51.412;5.436;2022-12-13T10:19:45;100978.50;;;-3.99;87.91
73981;BME280;62348;51.412;5.436;2022-12-13T10:22:14;100991.25;;;-3.94;87.97
73981;BME280;62348;51.412;5.436;2022-12-13T10:24:56;100980.19;;;-3.89;88.04
73981;BME280;62348;51.412;5.436;2022-12-13T10:27:38;100974.59;;;-3.86;87.33
73981;BME280;62348;51.412;5.436;2022-12-13T10:30:10;100978.56;;;-3.82;87.62
73981;BME280;62348;51.412;5.436;2022-12-13T10:32:51;100964.84;;;-3.78;87.92
73981;BME280;62348;51.412;5.436;2022-12-13T10:35:30;100975.75;;;-3.73;88.06
73981;BME280;62348;51.412;5.436;2022-12-13T10:38:21;100970.97;;;-3.69;87.73
73981;BME280;62348;51.412;5.436;2022-12-13T10:40:48;100955.78;;;-3.67;87.81
73981;BME280;62348;51.412;5.436;2022-12-13T10:43:19;100967.66;;;-3.63;87.91
73981;BME280;62348;51.412;5.436;2022-12-13T10:48:48;100963.69;;;-3.59;87.33
73981;BME280;62348;51.412;5.436;2022-12-13T10:51:17;100956.78;;;-3.60;87.61
73981;BME280;62348;51.412;5.436;2022-12-13T10:56:11;100946.84;;;-3.58;87.40
73981;BME280;62348;51.412;5.436;2022-12-13T10:58:44;100947.34;;;-3.54;87.43
73981;BME280;62348;51.412;5.436;2022-12-13T11:01:22;100945.53;;;-3.54;87.21
73981;BME280;62348;51.412;5.436;2022-12-13T11:03:58;100946.19;;;-3.51;87.27
73981;BME280;62348;51.412;5.436;2022-12-13T11:06:26;100930.81;;;-3.48;87.54
73981;BME280;62348;51.412;5.436;2022-12-13T11:08:52;100925.06;;;-3.43;87.30
73981;BME280;62348;51.412;5.436;2022-12-13T11:11:26;100921.06;;;-3.39;87.17
73981;BME280;62348;51.412;5.436;2022-12-13T11:13:55;100925.34;;;-3.38;87.14
73981;BME280;62348;51.412;5.436;2022-12-13T11:16:33;100925.69;;;-3.33;86.98
73981;BME280;62348;51.412;5.436;2022-12-13T11:19:06;100933.31;;;-3.30;87.07
73981;BME280;62348;51.412;5.436;2022-12-13T11:21:36;100921.38;;;-3.26;87.42
73981;BME280;62348;51.412;5.436;2022-12-13T11:24:06;100920.22;;;-3.23;86.37
73981;BME280;62348;51.412;5.436;2022-12-13T11:26:35;100923.50;;;-3.21;86.58
73981;BME280;62348;51.412;5.436;2022-12-13T11:32:19;100917.38;;;-3.14;87.35
73981;BME280;62348;51.412;5.436;2022-12-13T11:35:06;100914.56;;;-3.12;86.79
73981;BME280;62348;51.412;5.436;2022-12-13T11:37:49;100905.81;;;-3.12;86.73
73981;BME280;62348;51.412;5.436;2022-12-13T11:40:26;100905.66;;;-3.11;86.64
73981;BME280;62348;51.412;5.436;2022-12-13T11:43:04;100909.78;;;-3.08;86.18
73981;BME280;62348;51.412;5.436;2022-12-13T11:45:41;100904.66;;;-3.10;86.79
73981;BME280;62348;51.412;5.436;2022-12-13T11:48:20;100910.75;;;-3.09;86.60
73981;BME280;62348;51.412;5.436;2022-12-13T11:50:49;100894.88;;;-3.09;86.14
73981;BME280;62348;51.412;5.436;2022-12-13T12:01:15;100877.16;;;-3.01;86.68
73981;BME280;62348;51.412;5.436;2022-12-13T12:03:51;100869.72;;;-2.97;86.21
73981;BME280;62348;51.412;5.436;2022-12-13T12:06:25;100862.44;;;-2.95;86.08
73981;BME280;62348;51.412;5.436;2022-12-13T12:08:58;100855.31;;;-2.95;85.97
73981;BME280;62348;51.412;5.436;2022-12-13T12:17:14;100858.13;;;-2.88;84.77
73981;BME280;62348;51.412;5.436;2022-12-13T12:19:43;100857.09;;;-2.87;85.53
73981;BME280;62348;51.412;5.436;2022-12-13T12:33:23;100858.72;;;-2.78;85.29
73981;BME280;62348;51.412;5.436;2022-12-13T12:44:15;100861.78;;;-2.66;85.52
73981;BME280;62348;51.412;5.436;2022-12-13T12:46:53;100854.69;;;-2.65;84.68
73981;BME280;62348;51.412;5.436;2022-12-13T12:58:36;100853.19;;;-2.60;84.71
73981;BME280;62348;51.412;5.436;2022-12-13T13:03:24;100852.00;;;-2.57;84.00
73981;BME280;62348;51.412;5.436;2022-12-13T13:06:09;100842.88;;;-2.55;84.55
73981;BME280;62348;51.412;5.436;2022-12-13T13:11:07;100838.88;;;-2.50;84.79
73981;BME280;62348;51.412;5.436;2022-12-13T13:13:45;100853.59;;;-2.48;84.42
73981;BME280;62348;51.412;5.436;2022-12-13T13:19:02;100851.78;;;-2.47;83.68
73981;BME280;62348;51.412;5.436;2022-12-13T13:21:42;100854.09;;;-2.44;84.13
73981;BME280;62348;51.412;5.436;2022-12-13T13:26:42;100846.78;;;-2.42;83.21
73981;BME280;62348;51.412;5.436;2022-12-13T13:29:28;100850.91;;;-2.40;83.63
73981;BME280;62348;51.412;5.436;2022-12-13T13:31:58;100846.56;;;-2.32;85.32
73981;BME280;62348;51.412;5.436;2022-12-13T13:34:31;100839.25;;;-2.30;84.46
73981;BME280;62348;51.412;5.436;2022-12-13T13:36:57;100832.13;;;-2.30;83.37
73981;BME280;62348;51.412;5.436;2022-12-13T13:50:01;100815.88;;;-2.27;83.50
73981;BME280;62348;51.412;5.436;2022-12-13T13:52:31;100812.22;;;-2.26;82.98
73981;BME280;62348;51.412;5.436;2022-12-13T13:58:11;100807.22;;;-2.21;83.19
73981;BME280;62348;51.412;5.436;2022-12-13T14:06:30;100792.34;;;-2.22;83.06
73981;BME280;62348;51.412;5.436;2022-12-13T14:11:54;100793.00;;;-2.20;83.23
73981;BME280;62348;51.412;5.436;2022-12-13T14:23:17;100795.00;;;-2.22;83.35
73981;BME280;62348;51.412;5.436;2022-12-13T14:28:39;100779.75;;;-2.20;83.12
73981;BME280;62348;51.412;5.436;2022-12-13T14:31:17;100779.56;;;-2.18;83.42
73981;BME280;62348;51.412;5.436;2022-12-13T14:33:44;100782.41;;;-2.20;83.42
73981;BME280;62348;51.412;5.436;2022-12-13T14:36:15;100781.38;;;-2.19;83.29
73981;BME280;62348;51.412;5.436;2022-12-13T14:38:40;100778.72;;;-2.19;82.78
73981;BME280;62348;51.412;5.436;2022-12-13T14:41:15;100778.72;;;-2.19;82.68
73981;BME280;62348;51.412;5.436;2022-12-13T14:43:40;100777.91;;;-2.19;82.98
73981;BME280;62348;51.412;5.436;2022-12-13T14:46:06;100776.94;;;-2.18;82.88
73981;BME280;62348;51.412;5.436;2022-12-13T14:48:41;100772.63;;;-2.19;82.71
73981;BME280;62348;51.412;5.436;2022-12-13T14:53:53;100769.97;;;-2.19;82.52
73981;BME280;62348;51.412;5.436;2022-12-13T14:56:19;100765.47;;;-2.19;82.25
73981;BME280;62348;51.412;5.436;2022-12-13T14:58:56;100766.34;;;-2.18;82.28